sensor_id;sensor_type;location;lat;lon;timestamp;temperature;humidity
52024;DHT22;38038;45.922;13.604;2023-12-20T00:01:27;1.70;99.90
52024;DHT22;38038;45.922;13.604;2023-12-20T00:03:52;1.70;99.90
52024;DHT22;38038;45.922;13.604;2023-12-20T00:06:18;1.70;99.90
52024;DHT22;38038;45.922;13.604;2023-12-20T00:08:44;1.70;99.90
52024;DHT22;38038;45.922;13.604;2023-12-20T00:11:09;1.70;99.90
52024;DHT22;38038;45.922;13.604;2023-12-20T00:13:35;1.60;99.90
52024;DHT22;38038;45.922;13.604;2023-12-20T00:16:01;1.70;99.90
52024;DHT22;38038;45.922;13.604;2023-12-20T00:18:26;1.70;99.90
52024;DHT22;38038;45.922;13.604;2023-12-20T00:20:52;1.70;99.90
52024;DHT22;38038;45.922;13.604;2023-12-20T00:23:18;1.80;99.90
52024;DHT22;38038;45.922;13.604;2023-12-20T00:25:43;1.80;99.90
52024;DHT22;38038;45.922;13.604;2023-12-20T00:28:09;1.70;99.90
52024;DHT22;38038;45.922;13.604;2023-12-20T00:30:35;1.70;99.90
52024;DHT22;38038;45.922;13.604;2023-12-20T00:33:01;1.70;99.90
52024;DHT22;38038;45.922;13.604;2023-12-20T00:35:28;1.70;99.90
52024;DHT22;38038;45.922;13.604;2023-12-20T00:37:53;1.80;99.90
52024;DHT22;38038;45.922;13.604;2023-12-20T00:40:19;1.80;99.90
52024;DHT22;38038;45.922;13.604;2023-12-20T00:42:46;1.80;99.90
52024;DHT22;38038;45.922;13.604;2023-12-20T00:45:12;1.80;99.90
52024;DHT22;38038;45.922;13.604;2023-12-20T00:47:38;1.60;99.90
52024;DHT22;38038;45.922;13.604;2023-12-20T00:50:04;1.50;99.90
52024;DHT22;38038;45.922;13.604;2023-12-20T00:52:30;1.20;99.90
52024;DHT22;38038;45.922;13.604;2023-12-20T00:54:55;1.10;99.90
52024;DHT22;38038;45.922;13.604;2023-12-20T00:57:21;1.10;99.90
52024;DHT22;38038;45.922;13.604;2023-12-20T00:59:47;1.10;99.90
52024;DHT22;38038;45.922;13.604;2023-12-20T01:02:12;1.20;99.90
52024;DHT22;38038;45.922;13.604;2023-12-20T01:04:38;1.30;99.90
52024;DHT22;38038;45.922;13.604;2023-12-20T01:07:04;1.30;99.90
52024;DHT22;38038;45.922;13.604;2023-12-20T01:09:30;1.30;99.90
52024;DHT22;38038;45.922;13.604;2023-12-20T01:11:55;1.20;99.90
52024;DHT22;38038;45.922;13.604;2023-12-20T01:14:21;1.20;99.90
52024;DHT22;38038;45.922;13.604;2023-12-20T01:16:47;1.10;99.90
52024;DHT22;38038;45.922;13.604;2023-12-20T01:19:13;1.10;99.90
52024;DHT22;38038;45.922;13.604;2023-12-20T01:21:39;1.20;99.90
52024;DHT22;38038;45.922;13.604;2023-12-20T01:24:05;1.20;99.90
52024;DHT22;38038;45.922;13.604;2023-12-20T01:26:31;1.20;99.90
52024;DHT22;38038;45.922;13.604;2023-12-20T01:28:57;1.00;99.90
52024;DHT22;38038;45.922;13.604;2023-12-20T01:31:23;1.10;99.90
52024;DHT22;38038;45.922;13.604;2023-12-20T01:33:48;1.10;99.90
52024;DHT22;38038;45.922;13.604;2023-12-20T01:36:14;1.20;99.90
52024;DHT22;38038;45.922;13.604;2023-12-20T01:38:40;1.10;99.90
52024;DHT22;38038;45.922;13.604;2023-12-20T01:41:06;1.00;99.90
52024;DHT22;38038;45.922;13.604;2023-12-20T01:43:31;1.00;99.90
52024;DHT22;38038;45.922;13.604;2023-12-20T01:45:57;1.00;99.90
52024;DHT22;38038;45.922;13.604;2023-12-20T01:48:24;0.90;99.90
52024;DHT22;38038;45.922;13.604;2023-12-20T01:50:51;0.70;99.90
52024;DHT22;38038;45.922;13.604;2023-12-20T01:53:17;0.60;99.90
52024;DHT22;38038;45.922;13.604;2023-12-20T01:55:44;0.50;99.90
52024;DHT22;38038;45.922;13.604;2023-12-20T01:58:11;0.50;99.90
52024;DHT22;38038;45.922;13.604;2023-12-20T02:00:37;0.40;99.90
52024;DHT22;38038;45.922;13.604;2023-12-20T02:03:04;0.40;99.90
52024;DHT22;38038;45.922;13.604;2023-12-20T02:05:31;0.40;99.90
52024;DHT22;38038;45.922;13.604;2023-12-20T02:07:57;0.40;99.90
52024;DHT22;38038;45.922;13.604;2023-12-20T02:10:24;0.40;99.90
52024;DHT22;38038;45.922;13.604;2023-12-20T02:12:49;0.40;99.90
52024;DHT22;38038;45.922;13.604;2023-12-20T02:15:15;0.60;99.90
52024;DHT22;38038;45.922;13.604;2023-12-20T02:17:41;0.70;99.90
52024;DHT22;38038;45.922;13.604;2023-12-20T02:20:07;0.70;99.90
52024;DHT22;38038;45.922;13.604;2023-12-20T02:22:33;0.80;99.90
52024;DHT22;38038;45.922;13.604;2023-12-20T02:24:58;0.80;99.90
52024;DHT22;38038;45.922;13.604;2023-12-20T02:27:24;0.80;99.90
52024;DHT22;38038;45.922;13.604;2023-12-20T02:29:50;0.90;99.90
52024;DHT22;38038;45.922;13.604;2023-12-20T02:32:20;0.80;99.90
52024;DHT22;38038;45.922;13.604;2023-12-20T02:34:48;0.60;99.90
52024;DHT22;38038;45.922;13.604;2023-12-20T02:37:14;0.60;99.90
52024;DHT22;38038;45.922;13.604;2023-12-20T02:39:39;0.60;99.90
52024;DHT22;38038;45.922;13.604;2023-12-20T02:42:05;0.50;99.90
52024;DHT22;38038;45.922;13.604;2023-12-20T02:44:31;0.40;99.90
52024;DHT22;38038;45.922;13.604;2023-12-20T02:46:56;0.50;99.90
52024;DHT22;38038;45.922;13.604;2023-12-20T02:49:22;0.40;99.90
52024;DHT22;38038;45.922;13.604;2023-12-20T02:51:48;0.30;99.90
52024;DHT22;38038;45.922;13.604;2023-12-20T02:54:14;0.40;99.90
52024;DHT22;38038;45.922;13.604;2023-12-20T02:56:39;0.40;99.90
52024;DHT22;38038;45.922;13.604;2023-12-20T02:59:05;0.40;99.90
52024;DHT22;38038;45.922;13.604;2023-12-20T03:01:31;0.40;99.90
52024;DHT22;38038;45.922;13.604;2023-12-20T03:03:57;0.40;99.90
52024;DHT22;38038;45.922;13.604;2023-12-20T03:06:23;0.40;99.90
52024;DHT22;38038;45.922;13.604;2023-12-20T03:08:50;0.50;99.90
52024;DHT22;38038;45.922;13.604;2023-12-20T03:11:15;0.50;99.90
52024;DHT22;38038;45.922;13.604;2023-12-20T03:13:41;0.60;99.90
52024;DHT22;38038;45.922;13.604;2023-12-20T03:16:11;0.60;99.90
52024;DHT22;38038;45.922;13.604;2023-12-20T03:18:37;0.60;99.90
52024;DHT22;38038;45.922;13.604;2023-12-20T03:21:06;0.60;99.90
52024;DHT22;38038;45.922;13.604;2023-12-20T03:23:32;0.70;99.90
52024;DHT22;38038;45.922;13.604;2023-12-20T03:26:00;0.80;99.90
52024;DHT22;38038;45.922;13.604;2023-12-20T03:28:29;0.90;99.90
52024;DHT22;38038;45.922;13.604;2023-12-20T03:30:55;1.00;99.90
52024;DHT22;38038;45.922;13.604;2023-12-20T03:33:21;1.00;99.90
52024;DHT22;38038;45.922;13.604;2023-12-20T03:35:46;1.10;99.90
52024;DHT22;38038;45.922;13.604;2023-12-20T03:38:12;1.20;99.90
52024;DHT22;38038;45.922;13.604;2023-12-20T03:40:38;1.20;99.90
52024;DHT22;38038;45.922;13.604;2023-12-20T03:43:03;1.20;99.90
52024;DHT22;38038;45.922;13.604;2023-12-20T03:45:29;1.10;99.90
52024;DHT22;38038;45.922;13.604;2023-12-20T03:47:55;1.10;99.90
52024;DHT22;38038;45.922;13.604;2023-12-20T03:50:25;1.10;99.90
52024;DHT22;38038;45.922;13.604;2023-12-20T03:52:51;1.10;99.90
52024;DHT22;38038;45.922;13.604;2023-12-20T03:55:17;1.30;99.90
52024;DHT22;38038;45.922;13.604;2023-12-20T03:57:43;1.40;99.90
52024;DHT22;38038;45.922;13.604;2023-12-20T04:00:09;1.30;99.90
52024;DHT22;38038;45.922;13.604;2023-12-20T04:02:40;1.40;99.90
52024;DHT22;38038;45.922;13.604;2023-12-20T04:05:06;1.30;99.90
52024;DHT22;38038;45.922;13.604;2023-12-20T04:07:33;1.20;99.90
52024;DHT22;38038;45.922;13.604;2023-12-20T04:09:58;1.00;99.90
52024;DHT22;38038;45.922;13.604;2023-12-20T04:12:24;1.10;99.90
52024;DHT22;38038;45.922;13.604;2023-12-20T04:14:50;1.10;99.90
52024;DHT22;38038;45.922;13.604;2023-12-20T04:17:16;1.00;99.90
52024;DHT22;38038;45.922;13.604;2023-12-20T04:19:42;1.00;99.90
52024;DHT22;38038;45.922;13.604;2023-12-20T04:22:08;1.00;99.90
52024;DHT22;38038;45.922;13.604;2023-12-20T04:24:34;0.80;99.90
52024;DHT22;38038;45.922;13.604;2023-12-20T04:27:00;0.80;99.90
52024;DHT22;38038;45.922;13.604;2023-12-20T04:29:26;0.70;99.90
52024;DHT22;38038;45.922;13.604;2023-12-20T04:31:51;0.70;99.90
52024;DHT22;38038;45.922;13.604;2023-12-20T04:34:18;0.50;99.90
52024;DHT22;38038;45.922;13.604;2023-12-20T04:36:44;0.40;99.90
52024;DHT22;38038;45.922;13.604;2023-12-20T04:39:12;0.40;99.90
52024;DHT22;38038;45.922;13.604;2023-12-20T04:41:38;0.30;99.90
52024;DHT22;38038;45.922;13.604;2023-12-20T04:44:06;0.30;99.90
52024;DHT22;38038;45.922;13.604;2023-12-20T04:46:31;0.30;99.90
52024;DHT22;38038;45.922;13.604;2023-12-20T04:48:57;0.30;99.90
52024;DHT22;38038;45.922;13.604;2023-12-20T04:51:23;0.40;99.90
52024;DHT22;38038;45.922;13.604;2023-12-20T04:53:49;0.50;99.90
52024;DHT22;38038;45.922;13.604;2023-12-20T04:56:15;0.50;99.90
52024;DHT22;38038;45.922;13.604;2023-12-20T04:58:41;0.60;99.90
52024;DHT22;38038;45.922;13.604;2023-12-20T05:01:08;0.80;99.90
52024;DHT22;38038;45.922;13.604;2023-12-20T05:03:34;0.90;99.90
52024;DHT22;38038;45.922;13.604;2023-12-20T05:06:00;0.90;99.90
52024;DHT22;38038;45.922;13.604;2023-12-20T05:08:26;1.00;99.90
52024;DHT22;38038;45.922;13.604;2023-12-20T05:10:54;0.90;99.90
52024;DHT22;38038;45.922;13.604;2023-12-20T05:13:20;0.90;99.90
52024;DHT22;38038;45.922;13.604;2023-12-20T05:15:46;0.90;99.90
52024;DHT22;38038;45.922;13.604;2023-12-20T05:18:12;0.90;99.90
52024;DHT22;38038;45.922;13.604;2023-12-20T05:20:38;0.80;99.90
52024;DHT22;38038;45.922;13.604;2023-12-20T05:23:04;0.70;99.90
52024;DHT22;38038;45.922;13.604;2023-12-20T05:25:30;1.00;99.90
52024;DHT22;38038;45.922;13.604;2023-12-20T05:27:56;1.10;99.90
52024;DHT22;38038;45.922;13.604;2023-12-20T05:30:22;1.10;99.90
52024;DHT22;38038;45.922;13.604;2023-12-20T05:32:48;1.20;99.90
52024;DHT22;38038;45.922;13.604;2023-12-20T05:35:13;1.20;99.90
52024;DHT22;38038;45.922;13.604;2023-12-20T05:37:41;1.20;99.90
52024;DHT22;38038;45.922;13.604;2023-12-20T05:40:07;1.10;99.90
52024;DHT22;38038;45.922;13.604;2023-12-20T05:42:36;1.00;99.90
52024;DHT22;38038;45.922;13.604;2023-12-20T05:45:02;0.60;99.90
52024;DHT22;38038;45.922;13.604;2023-12-20T05:47:28;0.50;99.90
52024;DHT22;38038;45.922;13.604;2023-12-20T05:49:53;0.40;99.90
52024;DHT22;38038;45.922;13.604;2023-12-20T05:52:19;0.30;99.90
52024;DHT22;38038;45.922;13.604;2023-12-20T05:54:45;0.30;99.90
52024;DHT22;38038;45.922;13.604;2023-12-20T05:57:10;0.10;99.90
52024;DHT22;38038;45.922;13.604;2023-12-20T05:59:36;0.10;99.90
52024;DHT22;38038;45.922;13.604;2023-12-20T06:02:03;0.00;99.90
52024;DHT22;38038;45.922;13.604;2023-12-20T06:04:30;0.20;99.90
52024;DHT22;38038;45.922;13.604;2023-12-20T06:06:55;0.10;99.90
52024;DHT22;38038;45.922;13.604;2023-12-20T06:09:21;0.20;99.90
52024;DHT22;38038;45.922;13.604;2023-12-20T06:11:47;0.10;99.90
52024;DHT22;38038;45.922;13.604;2023-12-20T06:14:13;0.20;99.90
52024;DHT22;38038;45.922;13.604;2023-12-20T06:16:38;-0.10;99.90
52024;DHT22;38038;45.922;13.604;2023-12-20T06:19:04;-0.10;99.90
52024;DHT22;38038;45.922;13.604;2023-12-20T06:21:30;0.00;99.90
52024;DHT22;38038;45.922;13.604;2023-12-20T06:23:56;0.10;99.90
52024;DHT22;38038;45.922;13.604;2023-12-20T06:26:21;0.10;99.90
52024;DHT22;38038;45.922;13.604;2023-12-20T06:28:47;0.30;99.90
52024;DHT22;38038;45.922;13.604;2023-12-20T06:31:13;0.40;99.90
52024;DHT22;38038;45.922;13.604;2023-12-20T06:33:38;0.40;99.90
52024;DHT22;38038;45.922;13.604;2023-12-20T06:36:06;0.50;99.90
52024;DHT22;38038;45.922;13.604;2023-12-20T06:38:32;0.60;99.90
52024;DHT22;38038;45.922;13.604;2023-12-20T06:40:58;0.70;99.90
52024;DHT22;38038;45.922;13.604;2023-12-20T06:43:24;0.70;99.90
52024;DHT22;38038;45.922;13.604;2023-12-20T06:45:50;0.80;99.90
52024;DHT22;38038;45.922;13.604;2023-12-20T06:48:16;0.90;99.90
52024;DHT22;38038;45.922;13.604;2023-12-20T06:50:42;0.90;99.90
52024;DHT22;38038;45.922;13.604;2023-12-20T06:53:08;0.80;99.90
52024;DHT22;38038;45.922;13.604;2023-12-20T06:55:35;0.90;99.90
52024;DHT22;38038;45.922;13.604;2023-12-20T06:58:02;1.00;99.90
52024;DHT22;38038;45.922;13.604;2023-12-20T07:00:28;1.00;99.90
52024;DHT22;38038;45.922;13.604;2023-12-20T07:02:54;1.00;99.90
52024;DHT22;38038;45.922;13.604;2023-12-20T07:05:20;0.90;99.90
52024;DHT22;38038;45.922;13.604;2023-12-20T07:07:46;1.00;99.90
52024;DHT22;38038;45.922;13.604;2023-12-20T07:10:13;1.10;99.90
52024;DHT22;38038;45.922;13.604;2023-12-20T07:12:38;1.20;99.90
52024;DHT22;38038;45.922;13.604;2023-12-20T07:15:04;1.20;99.90
52024;DHT22;38038;45.922;13.604;2023-12-20T07:17:32;1.40;99.90
52024;DHT22;38038;45.922;13.604;2023-12-20T07:19:58;1.50;99.90
52024;DHT22;38038;45.922;13.604;2023-12-20T07:22:24;1.50;99.90
52024;DHT22;38038;45.922;13.604;2023-12-20T07:24:50;1.70;99.90
52024;DHT22;38038;45.922;13.604;2023-12-20T07:27:17;1.80;99.90
52024;DHT22;38038;45.922;13.604;2023-12-20T07:29:43;1.90;99.90
52024;DHT22;38038;45.922;13.604;2023-12-20T07:32:09;2.00;99.90
52024;DHT22;38038;45.922;13.604;2023-12-20T07:34:34;2.00;99.90
52024;DHT22;38038;45.922;13.604;2023-12-20T07:37:00;2.10;99.90
52024;DHT22;38038;45.922;13.604;2023-12-20T07:39:26;2.10;99.90
52024;DHT22;38038;45.922;13.604;2023-12-20T07:41:51;2.20;99.90
52024;DHT22;38038;45.922;13.604;2023-12-20T07:44:17;2.40;99.90
52024;DHT22;38038;45.922;13.604;2023-12-20T07:46:43;2.50;99.90
52024;DHT22;38038;45.922;13.604;2023-12-20T07:49:09;2.70;99.90
52024;DHT22;38038;45.922;13.604;2023-12-20T07:51:35;2.70;99.90
52024;DHT22;38038;45.922;13.604;2023-12-20T07:54:01;2.70;99.90
52024;DHT22;38038;45.922;13.604;2023-12-20T07:56:27;2.50;99.90
52024;DHT22;38038;45.922;13.604;2023-12-20T07:58:52;2.40;99.90
52024;DHT22;38038;45.922;13.604;2023-12-20T08:01:18;2.50;99.90
52024;DHT22;38038;45.922;13.604;2023-12-20T08:03:44;2.70;99.90
52024;DHT22;38038;45.922;13.604;2023-12-20T08:06:10;2.70;99.90
52024;DHT22;38038;45.922;13.604;2023-12-20T08:08:42;2.70;99.90
52024;DHT22;38038;45.922;13.604;2023-12-20T08:11:11;2.70;99.90
52024;DHT22;38038;45.922;13.604;2023-12-20T08:13:38;2.80;99.90
52024;DHT22;38038;45.922;13.604;2023-12-20T08:16:04;2.80;99.90
52024;DHT22;38038;45.922;13.604;2023-12-20T08:18:29;2.90;99.90
52024;DHT22;38038;45.922;13.604;2023-12-20T08:20:55;2.80;99.90
52024;DHT22;38038;45.922;13.604;2023-12-20T08:23:21;2.80;99.90
52024;DHT22;38038;45.922;13.604;2023-12-20T08:25:47;2.70;99.90
52024;DHT22;38038;45.922;13.604;2023-12-20T08:28:13;2.70;99.90
52024;DHT22;38038;45.922;13.604;2023-12-20T08:30:39;2.70;99.90
52024;DHT22;38038;45.922;13.604;2023-12-20T08:33:06;2.60;99.90
52024;DHT22;38038;45.922;13.604;2023-12-20T08:35:36;2.50;99.90
52024;DHT22;38038;45.922;13.604;2023-12-20T08:38:02;2.70;99.90
52024;DHT22;38038;45.922;13.604;2023-12-20T08:40:29;2.80;99.90
52024;DHT22;38038;45.922;13.604;2023-12-20T08:42:55;2.70;99.90
52024;DHT22;38038;45.922;13.604;2023-12-20T08:45:21;2.80;99.90
52024;DHT22;38038;45.922;13.604;2023-12-20T08:47:47;2.80;99.90
52024;DHT22;38038;45.922;13.604;2023-12-20T08:50:13;3.10;99.90
52024;DHT22;38038;45.922;13.604;2023-12-20T08:52:39;3.30;99.90
52024;DHT22;38038;45.922;13.604;2023-12-20T08:55:05;3.40;99.90
52024;DHT22;38038;45.922;13.604;2023-12-20T08:57:31;3.70;99.90
52024;DHT22;38038;45.922;13.604;2023-12-20T08:59:57;3.80;99.90
52024;DHT22;38038;45.922;13.604;2023-12-20T09:02:23;4.00;99.90
52024;DHT22;38038;45.922;13.604;2023-12-20T09:04:49;4.10;99.90
52024;DHT22;38038;45.922;13.604;2023-12-20T09:07:26;4.20;99.90
52024;DHT22;38038;45.922;13.604;2023-12-20T09:09:53;4.30;99.90
52024;DHT22;38038;45.922;13.604;2023-12-20T09:12:19;4.30;99.90
52024;DHT22;38038;45.922;13.604;2023-12-20T09:14:46;4.40;99.90
52024;DHT22;38038;45.922;13.604;2023-12-20T09:17:12;4.40;99.90
52024;DHT22;38038;45.922;13.604;2023-12-20T09:19:38;4.50;99.90
52024;DHT22;38038;45.922;13.604;2023-12-20T09:22:05;4.60;99.90
52024;DHT22;38038;45.922;13.604;2023-12-20T09:24:31;4.70;99.90
52024;DHT22;38038;45.922;13.604;2023-12-20T09:26:57;4.80;99.90
52024;DHT22;38038;45.922;13.604;2023-12-20T09:29:23;5.00;99.90
52024;DHT22;38038;45.922;13.604;2023-12-20T09:31:50;5.10;99.90
52024;DHT22;38038;45.922;13.604;2023-12-20T09:34:16;5.20;99.90
52024;DHT22;38038;45.922;13.604;2023-12-20T09:36:42;5.40;99.90
52024;DHT22;38038;45.922;13.604;2023-12-20T09:39:15;5.50;99.90
52024;DHT22;38038;45.922;13.604;2023-12-20T09:41:45;5.70;99.90
52024;DHT22;38038;45.922;13.604;2023-12-20T09:44:16;5.70;99.90
52024;DHT22;38038;45.922;13.604;2023-12-20T09:46:45;5.80;99.90
52024;DHT22;38038;45.922;13.604;2023-12-20T09:49:12;5.70;99.90
52024;DHT22;38038;45.922;13.604;2023-12-20T09:51:39;5.50;99.90
52024;DHT22;38038;45.922;13.604;2023-12-20T09:54:06;5.30;99.90
52024;DHT22;38038;45.922;13.604;2023-12-20T09:56:32;5.30;99.90
52024;DHT22;38038;45.922;13.604;2023-12-20T09:58:59;5.30;99.90
52024;DHT22;38038;45.922;13.604;2023-12-20T10:01:26;5.20;99.90
52024;DHT22;38038;45.922;13.604;2023-12-20T10:03:54;5.20;99.90
52024;DHT22;38038;45.922;13.604;2023-12-20T10:06:21;5.40;99.90
52024;DHT22;38038;45.922;13.604;2023-12-20T10:08:47;5.40;99.90
52024;DHT22;38038;45.922;13.604;2023-12-20T10:11:16;5.40;99.90
52024;DHT22;38038;45.922;13.604;2023-12-20T10:13:43;5.50;99.90
52024;DHT22;38038;45.922;13.604;2023-12-20T10:16:09;5.50;99.90
52024;DHT22;38038;45.922;13.604;2023-12-20T10:18:35;5.30;99.90
52024;DHT22;38038;45.922;13.604;2023-12-20T10:21:01;5.30;99.90
52024;DHT22;38038;45.922;13.604;2023-12-20T10:23:29;5.20;99.90
52024;DHT22;38038;45.922;13.604;2023-12-20T10:26:01;5.20;99.90
52024;DHT22;38038;45.922;13.604;2023-12-20T10:28:28;5.40;99.90
52024;DHT22;38038;45.922;13.604;2023-12-20T10:30:58;5.60;99.90
52024;DHT22;38038;45.922;13.604;2023-12-20T10:33:28;5.60;99.90
52024;DHT22;38038;45.922;13.604;2023-12-20T10:35:55;5.60;99.90
52024;DHT22;38038;45.922;13.604;2023-12-20T10:38:21;5.70;99.90
52024;DHT22;38038;45.922;13.604;2023-12-20T10:40:47;5.70;99.90
52024;DHT22;38038;45.922;13.604;2023-12-20T10:43:14;5.90;99.90
52024;DHT22;38038;45.922;13.604;2023-12-20T10:45:42;6.10;99.90
52024;DHT22;38038;45.922;13.604;2023-12-20T10:48:10;6.10;99.90
52024;DHT22;38038;45.922;13.604;2023-12-20T10:50:38;6.20;99.90
52024;DHT22;38038;45.922;13.604;2023-12-20T10:53:04;6.20;99.90
52024;DHT22;38038;45.922;13.604;2023-12-20T10:55:30;6.30;99.90
52024;DHT22;38038;45.922;13.604;2023-12-20T10:58:01;6.40;99.90
52024;DHT22;38038;45.922;13.604;2023-12-20T11:00:31;6.60;99.90
52024;DHT22;38038;45.922;13.604;2023-12-20T11:03:00;6.80;99.90
52024;DHT22;38038;45.922;13.604;2023-12-20T11:05:36;6.90;99.90
52024;DHT22;38038;45.922;13.604;2023-12-20T11:08:14;6.90;99.90
52024;DHT22;38038;45.922;13.604;2023-12-20T11:10:56;7.00;99.90
52024;DHT22;38038;45.922;13.604;2023-12-20T11:13:36;7.10;99.90
52024;DHT22;38038;45.922;13.604;2023-12-20T11:16:02;7.10;99.90
52024;DHT22;38038;45.922;13.604;2023-12-20T11:18:29;7.20;99.90
52024;DHT22;38038;45.922;13.604;2023-12-20T11:21:06;7.00;99.90
52024;DHT22;38038;45.922;13.604;2023-12-20T11:23:33;7.00;99.90
52024;DHT22;38038;45.922;13.604;2023-12-20T11:26:00;7.00;99.90
52024;DHT22;38038;45.922;13.604;2023-12-20T11:28:27;7.10;99.90
52024;DHT22;38038;45.922;13.604;2023-12-20T11:30:55;7.00;99.90
52024;DHT22;38038;45.922;13.604;2023-12-20T11:33:29;6.90;99.90
52024;DHT22;38038;45.922;13.604;2023-12-20T11:35:59;6.90;99.90
52024;DHT22;38038;45.922;13.604;2023-12-20T11:38:36;7.10;99.90
52024;DHT22;38038;45.922;13.604;2023-12-20T11:41:05;7.20;99.90
52024;DHT22;38038;45.922;13.604;2023-12-20T11:43:34;7.30;99.90
52024;DHT22;38038;45.922;13.604;2023-12-20T11:46:08;7.40;99.90
52024;DHT22;38038;45.922;13.604;2023-12-20T11:48:39;7.50;99.90
52024;DHT22;38038;45.922;13.604;2023-12-20T11:51:12;7.50;99.90
52024;DHT22;38038;45.922;13.604;2023-12-20T11:53:39;7.50;99.90
52024;DHT22;38038;45.922;13.604;2023-12-20T11:56:08;7.40;99.90
52024;DHT22;38038;45.922;13.604;2023-12-20T11:58:34;7.50;99.90
52024;DHT22;38038;45.922;13.604;2023-12-20T12:01:01;7.60;99.90
52024;DHT22;38038;45.922;13.604;2023-12-20T12:03:30;7.70;99.90
52024;DHT22;38038;45.922;13.604;2023-12-20T12:05:56;7.80;99.90
52024;DHT22;38038;45.922;13.604;2023-12-20T12:08:21;7.80;99.90
52024;DHT22;38038;45.922;13.604;2023-12-20T12:10:47;7.90;99.90
52024;DHT22;38038;45.922;13.604;2023-12-20T12:13:13;8.10;99.90
52024;DHT22;38038;45.922;13.604;2023-12-20T12:15:40;8.20;99.90
52024;DHT22;38038;45.922;13.604;2023-12-20T12:18:07;8.30;99.90
52024;DHT22;38038;45.922;13.604;2023-12-20T12:20:33;8.50;99.90
52024;DHT22;38038;45.922;13.604;2023-12-20T12:23:06;8.50;99.90
52024;DHT22;38038;45.922;13.604;2023-12-20T12:25:34;8.60;99.90
52024;DHT22;38038;45.922;13.604;2023-12-20T12:28:01;8.80;99.90
52024;DHT22;38038;45.922;13.604;2023-12-20T12:30:27;8.90;99.90
52024;DHT22;38038;45.922;13.604;2023-12-20T12:32:53;8.80;99.90
52024;DHT22;38038;45.922;13.604;2023-12-20T12:49:58;8.40;99.90
52024;DHT22;38038;45.922;13.604;2023-12-20T12:52:24;8.50;99.90
52024;DHT22;38038;45.922;13.604;2023-12-20T12:54:49;8.60;99.90
52024;DHT22;38038;45.922;13.604;2023-12-20T12:57:15;8.40;99.90
52024;DHT22;38038;45.922;13.604;2023-12-20T12:59:42;8.30;99.90
52024;DHT22;38038;45.922;13.604;2023-12-20T13:02:09;8.30;99.90
52024;DHT22;38038;45.922;13.604;2023-12-20T13:04:35;8.40;99.90
52024;DHT22;38038;45.922;13.604;2023-12-20T13:07:07;8.30;99.90
52024;DHT22;38038;45.922;13.604;2023-12-20T13:09:36;8.40;99.90
52024;DHT22;38038;45.922;13.604;2023-12-20T13:12:01;8.50;99.90
52024;DHT22;38038;45.922;13.604;2023-12-20T13:14:31;8.50;99.90
52024;DHT22;38038;45.922;13.604;2023-12-20T13:16:58;8.60;99.90
52024;DHT22;38038;45.922;13.604;2023-12-20T13:19:24;8.50;99.90
52024;DHT22;38038;45.922;13.604;2023-12-20T13:21:50;8.40;99.90
52024;DHT22;38038;45.922;13.604;2023-12-20T13:24:15;8.40;99.90
52024;DHT22;38038;45.922;13.604;2023-12-20T13:26:41;8.40;99.90
52024;DHT22;38038;45.922;13.604;2023-12-20T13:29:07;8.30;99.90
52024;DHT22;38038;45.922;13.604;2023-12-20T13:31:32;8.20;99.90
52024;DHT22;38038;45.922;13.604;2023-12-20T13:33:58;8.10;99.90
52024;DHT22;38038;45.922;13.604;2023-12-20T13:36:24;7.80;99.90
52024;DHT22;38038;45.922;13.604;2023-12-20T13:38:50;7.70;99.90
52024;DHT22;38038;45.922;13.604;2023-12-20T13:41:15;7.60;99.90
52024;DHT22;38038;45.922;13.604;2023-12-20T13:43:41;7.60;99.90
52024;DHT22;38038;45.922;13.604;2023-12-20T13:46:08;7.70;99.90
52024;DHT22;38038;45.922;13.604;2023-12-20T13:48:34;7.60;99.90
52024;DHT22;38038;45.922;13.604;2023-12-20T13:51:00;7.70;99.90
52024;DHT22;38038;45.922;13.604;2023-12-20T13:53:28;7.60;99.90
52024;DHT22;38038;45.922;13.604;2023-12-20T13:55:54;7.60;99.90
52024;DHT22;38038;45.922;13.604;2023-12-20T13:58:19;7.50;99.90
52024;DHT22;38038;45.922;13.604;2023-12-20T14:00:45;7.40;99.90
52024;DHT22;38038;45.922;13.604;2023-12-20T14:03:11;7.40;99.90
52024;DHT22;38038;45.922;13.604;2023-12-20T14:05:37;7.40;99.90
52024;DHT22;38038;45.922;13.604;2023-12-20T14:08:03;7.40;99.90
52024;DHT22;38038;45.922;13.604;2023-12-20T14:10:29;7.40;99.90
52024;DHT22;38038;45.922;13.604;2023-12-20T14:12:55;7.40;99.90
52024;DHT22;38038;45.922;13.604;2023-12-20T14:15:22;7.40;99.90
52024;DHT22;38038;45.922;13.604;2023-12-20T14:17:50;7.50;99.90
52024;DHT22;38038;45.922;13.604;2023-12-20T14:20:16;7.40;99.90
52024;DHT22;38038;45.922;13.604;2023-12-20T14:22:43;7.40;99.90
52024;DHT22;38038;45.922;13.604;2023-12-20T14:25:15;7.40;99.90
52024;DHT22;38038;45.922;13.604;2023-12-20T14:27:42;7.40;99.90
52024;DHT22;38038;45.922;13.604;2023-12-20T14:30:11;7.40;99.90
52024;DHT22;38038;45.922;13.604;2023-12-20T14:32:37;7.40;99.90
52024;DHT22;38038;45.922;13.604;2023-12-20T14:35:05;7.30;99.90
52024;DHT22;38038;45.922;13.604;2023-12-20T14:37:31;7.30;99.90
52024;DHT22;38038;45.922;13.604;2023-12-20T14:39:57;7.40;99.90
52024;DHT22;38038;45.922;13.604;2023-12-20T14:42:23;7.40;99.90
52024;DHT22;38038;45.922;13.604;2023-12-20T14:44:49;7.40;99.90
52024;DHT22;38038;45.922;13.604;2023-12-20T14:47:14;7.40;99.90
52024;DHT22;38038;45.922;13.604;2023-12-20T14:49:41;7.40;99.90
52024;DHT22;38038;45.922;13.604;2023-12-20T14:52:07;7.40;99.90
52024;DHT22;38038;45.922;13.604;2023-12-20T14:54:36;7.30;99.90
52024;DHT22;38038;45.922;13.604;2023-12-20T14:57:02;7.30;99.90
52024;DHT22;38038;45.922;13.604;2023-12-20T14:59:28;7.20;99.90
52024;DHT22;38038;45.922;13.604;2023-12-20T15:01:54;7.20;99.90
52024;DHT22;38038;45.922;13.604;2023-12-20T15:04:20;7.10;99.90
52024;DHT22;38038;45.922;13.604;2023-12-20T15:06:54;7.00;99.90
52024;DHT22;38038;45.922;13.604;2023-12-20T15:09:20;6.90;99.90
52024;DHT22;38038;45.922;13.604;2023-12-20T15:11:46;6.90;99.90
52024;DHT22;38038;45.922;13.604;2023-12-20T15:14:12;6.90;99.90
52024;DHT22;38038;45.922;13.604;2023-12-20T15:16:43;7.00;99.90
52024;DHT22;38038;45.922;13.604;2023-12-20T15:19:09;6.90;99.90
52024;DHT22;38038;45.922;13.604;2023-12-20T15:21:34;6.70;99.90
52024;DHT22;38038;45.922;13.604;2023-12-20T15:24:05;6.60;99.90
52024;DHT22;38038;45.922;13.604;2023-12-20T15:26:37;6.50;99.90
52024;DHT22;38038;45.922;13.604;2023-12-20T15:29:03;6.30;99.90
52024;DHT22;38038;45.922;13.604;2023-12-20T15:31:30;6.30;99.90
52024;DHT22;38038;45.922;13.604;2023-12-20T15:33:57;6.20;99.90
52024;DHT22;38038;45.922;13.604;2023-12-20T15:36:22;6.20;99.90
52024;DHT22;38038;45.922;13.604;2023-12-20T15:38:48;6.10;99.90
52024;DHT22;38038;45.922;13.604;2023-12-20T15:41:21;6.00;99.90